CST,Max TemperatureF,Mean TemperatureF,Min TemperatureF,Max Dew PointF,MeanDew PointF,Min DewpointF,Max Humidity, Mean Humidity, Min Humidity, Max Sea Level PressureIn, Mean Sea Level PressureIn, Min Sea Level PressureIn, Max VisibilityMiles, Mean VisibilityMiles, Min VisibilityMiles, Max Wind SpeedMPH, Mean Wind SpeedMPH, Max Gust SpeedMPH,PrecipitationIn, CloudCover, Events, WindDirDegrees
2012-11-1,46,39,32,37,29,21,93,62,40,30.06,29.99,29.93,10,10,10,18,7,22,0.00,3,,343
2012-11-2,39,34,28,28,26,21,80,71,65,30.16,30.10,30.06,10,10,10,10,4,,0.00,3,,70
2012-11-3,44,40,35,36,30,27,87,68,53,30.21,30.18,30.15,10,10,10,5,1,,0.03,5,Rain,75
2012-11-4,46,42,37,39,38,36,93,87,76,30.20,30.15,30.09,10,8,2,9,5,,0.01,2,Rain,99
2012-11-5,42,40,39,41,39,37,93,90,87,30.17,30.10,29.93,10,3,1,10,5,,0.10,2,Rain,167
2012-11-6,44,42,41,39,37,36,93,82,71,30.00,29.87,29.79,10,9,5,23,15,34,0.12,6,Rain,294
2012-11-7,48,42,37,37,36,32,93,81,62,30.13,30.06,30.00,10,10,10,13,6,,0.00,3,,223
2012-11-8,57,46,35,39,36,32,87,72,47,30.02,29.94,29.90,10,10,10,18,11,25,0.00,0,,156
2012-11-9,53,44,35,41,38,34,93,77,62,30.00,29.92,29.82,10,10,5,18,11,25,0.00,2,,78
2012-11-10,73,60,46,55,47,41,94,73,35,29.81,29.58,29.45,10,8,4,24,14,33,0.24,1,Rain-Thunderstorm,159
2012-11-11,48,34,21,46,23,12,93,76,63,29.98,29.82,29.57,10,10,5,25,19,29,0.00,7,Snow,288
2012-11-12,28,24,19,18,16,12,86,73,59,30.30,30.11,29.97,10,10,2,25,15,32,0.00,3,Snow,274
2012-11-13,44,30,17,30,23,12,86,68,46,30.33,30.28,30.24,10,10,10,13,6,,0.00,2,,171
2012-11-14,53,42,30,34,31,28,93,70,41,30.25,30.20,30.13,10,10,10,10,5,,0.00,3,,178
2012-11-15,46,36,24,36,30,18,93,74,62,30.46,30.26,30.10,10,10,10,17,9,25,0.00,1,,294
2012-11-16,44,30,17,28,20,14,93,62,34,30.48,30.39,30.27,10,10,10,12,4,,0.00,0,,156
2012-11-17,57,46,35,37,34,28,87,63,44,30.28,30.20,30.13,10,10,10,18,13,25,0.00,2,,167
2012-11-18,60,51,42,36,34,32,70,54,36,30.14,30.07,30.02,10,10,10,20,14,29,0.00,1,,171
2012-11-19,59,50,39,39,38,36,87,63,48,30.10,30.03,29.99,10,10,4,14,9,17,0.00,1,,196
2012-11-20,53,38,24,37,31,23,93,72,41,30.19,30.11,30.00,10,7,0,14,7,,0.00,1,Fog,230
2012-11-21,71,56,41,43,38,32,81,56,23,30.00,29.86,29.67,10,10,7,17,11,23,0.00,0,,192
2012-11-22,57,42,26,45,35,18,93,73,62,30.09,29.80,29.60,10,10,4,37,16,44,0.00,4,Snow,275
2012-11-23,28,20,12,18,12,9,86,67,51,30.40,30.31,30.10,10,10,5,38,26,48,0.00,2,Snow,318
2012-11-24,32,20,8,18,12,5,92,70,48,30.36,30.07,29.79,10,10,10,17,6,22,0.00,3,,181
2012-11-25,33,30,26,25,21,12,86,69,55,30.17,29.99,29.81,10,10,10,17,10,25,0.00,5,,315
2012-11-26,26,18,10,12,7,3,79,62,46,30.44,30.35,30.18,10,10,10,17,9,24,0.00,2,,313
2012-11-27,42,28,15,25,17,7,86,69,49,30.33,30.20,30.08,10,10,10,18,8,20,0.00,0,,233
2012-11-28,39,27,15,25,21,12,93,76,56,30.34,30.23,30.06,10,10,7,12,7,,0.00,1,,194
2012-11-29,44,32,21,27,23,18,93,68,49,30.05,30.03,29.99,10,10,10,13,5,20,0.00,0,,74
2012-11-30,39,32,26,34,29,25,93,82,75,30.14,30.07,30.00,10,6,2,16,9,22,0.00,0,,95